createdAt,value
2022-09-23T00:00:12.998Z,1012.04
2022-09-23T00:00:48.271Z,1012.01
2022-09-23T00:01:23.459Z,1012.02
2022-09-23T00:01:58.946Z,1012.03
2022-09-23T00:02:34.036Z,1012.01
2022-09-23T00:03:09.324Z,1011.97
2022-09-23T00:03:44.733Z,1011.97
2022-09-23T00:04:19.928Z,1011.97
2022-09-23T00:04:55.069Z,1011.98
2022-09-23T00:05:30.178Z,1011.99
2022-09-23T00:06:05.405Z,1012.00
2022-09-23T00:06:40.523Z,1011.98
2022-09-23T00:07:16.003Z,1011.96
2022-09-23T00:07:51.339Z,1011.95
2022-09-23T00:14:36.411Z,1011.91
2022-09-23T00:15:11.501Z,1011.91
2022-09-23T00:15:46.782Z,1011.94
2022-09-23T00:16:22.245Z,1011.92
2022-09-23T00:16:57.247Z,1011.93
2022-09-23T00:17:32.424Z,1011.91
2022-09-23T00:18:07.435Z,1011.91
2022-09-23T00:18:42.526Z,1011.87
2022-09-23T00:19:17.843Z,1011.89
2022-09-23T00:19:53.246Z,1011.88
2022-09-23T00:20:28.339Z,1011.88
2022-09-23T00:21:03.525Z,1011.88
2022-09-23T00:21:38.971Z,1011.86
2022-09-23T00:22:14.677Z,1011.86
2022-09-23T00:22:50.189Z,1011.85
2022-09-23T00:23:25.308Z,1011.82
2022-09-23T00:24:00.519Z,1011.85
2022-09-23T00:24:35.598Z,1011.84
2022-09-23T00:25:10.697Z,1011.79
2022-09-23T00:25:45.868Z,1011.81
2022-09-23T00:26:28.010Z,1011.80
2022-09-23T00:27:03.045Z,1011.78
2022-09-23T00:27:38.588Z,1011.80
2022-09-23T00:28:14.082Z,1011.82
2022-09-23T00:28:49.025Z,1011.81
2022-09-23T00:29:24.657Z,1011.78
2022-09-23T00:30:00.244Z,1011.76
2022-09-23T00:30:35.606Z,1011.78
2022-09-23T00:31:10.894Z,1011.78
2022-09-23T00:31:46.090Z,1011.79
2022-09-23T00:32:21.523Z,1011.76
2022-09-23T00:32:56.515Z,1011.76
2022-09-23T00:33:31.819Z,1011.75
2022-09-23T00:34:06.918Z,1011.73
2022-09-23T00:34:42.032Z,1011.76
2022-09-23T00:35:17.641Z,1011.73
2022-09-23T00:35:52.755Z,1011.76
2022-09-23T00:36:27.993Z,1011.74
2022-09-23T00:37:03.216Z,1011.76
2022-09-23T00:37:38.671Z,1011.72
2022-09-23T00:38:13.741Z,1011.70
2022-09-23T00:38:48.836Z,1011.75
2022-09-23T00:39:24.181Z,1011.72
2022-09-23T00:39:59.402Z,1011.72
2022-09-23T00:40:34.689Z,1011.77
2022-09-23T00:41:09.862Z,1011.75
2022-09-23T00:41:45.377Z,1011.81
2022-09-23T00:42:20.663Z,1011.77
2022-09-23T00:42:55.969Z,1011.76
2022-09-23T00:43:31.200Z,1011.80
2022-09-23T00:44:06.316Z,1011.75
2022-09-23T00:44:41.620Z,1011.76
2022-09-23T00:45:16.892Z,1011.71
2022-09-23T00:45:52.090Z,1011.76
2022-09-23T00:46:27.349Z,1011.74
2022-09-23T00:47:02.673Z,1011.76
2022-09-23T00:47:37.701Z,1011.76
2022-09-23T00:48:13.254Z,1011.72
2022-09-23T00:48:48.456Z,1011.73
2022-09-23T00:49:23.789Z,1011.68
2022-09-23T00:49:59.207Z,1011.69
2022-09-23T00:50:34.613Z,1011.68
2022-09-23T00:51:09.606Z,1011.70
2022-09-23T00:51:45.024Z,1011.69
2022-09-23T00:52:20.167Z,1011.67
2022-09-23T00:52:55.195Z,1011.69
2022-09-23T00:53:30.911Z,1011.70
2022-09-23T00:54:06.322Z,1011.67
2022-09-23T00:54:41.551Z,1011.62
2022-09-23T00:55:16.754Z,1011.64
2022-09-23T00:55:51.969Z,1011.63
2022-09-23T00:56:27.585Z,1011.63
2022-09-23T00:57:02.691Z,1011.62
2022-09-23T00:57:38.318Z,1011.63
2022-09-23T00:58:13.543Z,1011.63
2022-09-23T00:58:48.772Z,1011.61
2022-09-23T00:59:24.181Z,1011.61
2022-09-23T00:59:59.536Z,1011.63
2022-09-23T01:00:34.667Z,1011.62
2022-09-23T01:01:10.301Z,1011.62
2022-09-23T01:01:45.739Z,1011.59
2022-09-23T01:02:21.163Z,1011.62
2022-09-23T01:02:56.428Z,1011.61
2022-09-23T01:03:31.569Z,1011.57
2022-09-23T01:04:06.807Z,1011.60
2022-09-23T01:04:42.091Z,1011.62
2022-09-23T01:05:17.488Z,1011.58
2022-09-23T01:05:52.631Z,1011.58
2022-09-23T01:06:27.815Z,1011.55
2022-09-23T01:07:03.332Z,1011.59
2022-09-23T01:07:38.331Z,1011.56
2022-09-23T01:08:13.545Z,1011.60
2022-09-23T01:08:48.975Z,1011.57
2022-09-23T01:09:24.181Z,1011.58
2022-09-23T01:09:59.281Z,1011.59
2022-09-23T01:10:36.827Z,1011.60
2022-09-23T01:11:12.184Z,1011.56
2022-09-23T01:11:47.580Z,1011.58
2022-09-23T01:12:23.038Z,1011.56
2022-09-23T01:12:58.144Z,1011.59
2022-09-23T01:13:33.433Z,1011.55
2022-09-23T01:14:08.769Z,1011.56
2022-09-23T01:14:43.969Z,1011.56
2022-09-23T01:15:19.237Z,1011.53
2022-09-23T01:15:54.435Z,1011.52
2022-09-23T01:16:29.788Z,1011.55
2022-09-23T01:17:05.152Z,1011.54
2022-09-23T01:17:40.498Z,1011.52
2022-09-23T01:18:16.507Z,1011.52
2022-09-23T01:18:51.825Z,1011.55
2022-09-23T01:19:27.468Z,1011.48
2022-09-23T01:20:02.882Z,1011.51
2022-09-23T01:20:37.906Z,1011.52
2022-09-23T01:21:13.206Z,1011.52
2022-09-23T01:21:48.727Z,1011.51
2022-09-23T01:22:23.845Z,1011.50
2022-09-23T01:22:58.770Z,1011.51
2022-09-23T01:23:34.178Z,1011.50
2022-09-23T01:24:09.499Z,1011.51
2022-09-23T01:24:44.623Z,1011.46
2022-09-23T01:25:20.122Z,1011.49
2022-09-23T01:25:55.251Z,1011.47
2022-09-23T01:26:30.691Z,1011.49
2022-09-23T01:27:05.778Z,1011.47
2022-09-23T01:27:41.305Z,1011.48
2022-09-23T01:28:16.618Z,1011.48
2022-09-23T01:28:51.838Z,1011.46
2022-09-23T01:29:27.378Z,1011.45
2022-09-23T01:30:02.886Z,1011.43
2022-09-23T01:30:38.266Z,1011.46
2022-09-23T01:31:13.401Z,1011.41
2022-09-23T01:31:48.440Z,1011.45
2022-09-23T01:32:23.755Z,1011.45
2022-09-23T01:32:59.034Z,1011.42
2022-09-23T01:33:34.535Z,1011.46
2022-09-23T01:34:09.984Z,1011.44
2022-09-23T01:34:45.286Z,1011.46
2022-09-23T01:35:20.524Z,1011.44
2022-09-23T01:35:55.622Z,1011.43
2022-09-23T01:36:30.841Z,1011.42
2022-09-23T01:37:06.059Z,1011.43
2022-09-23T01:37:41.364Z,1011.41
2022-09-23T01:38:16.678Z,1011.39
2022-09-23T01:38:51.874Z,1011.42
2022-09-23T01:39:26.882Z,1011.41
2022-09-23T01:40:02.127Z,1011.36
2022-09-23T01:40:37.433Z,1011.37
2022-09-23T01:41:12.849Z,1011.34
2022-09-23T01:41:47.977Z,1011.35
2022-09-23T01:42:23.075Z,1011.30
2022-09-23T01:42:58.102Z,1011.36
2022-09-23T01:43:33.619Z,1011.35
2022-09-23T01:44:08.938Z,1011.35
2022-09-23T01:44:43.830Z,1011.33
2022-09-23T01:45:19.138Z,1011.29
2022-09-23T01:45:54.556Z,1011.31
2022-09-23T01:46:30.076Z,1011.33
2022-09-23T01:47:05.226Z,1011.32
2022-09-23T01:47:40.335Z,1011.33
2022-09-23T01:48:15.821Z,1011.35
2022-09-23T01:48:51.100Z,1011.31
2022-09-23T01:49:26.508Z,1011.34
2022-09-23T01:50:01.830Z,1011.31
2022-09-23T01:50:36.929Z,1011.34
2022-09-23T01:51:12.348Z,1011.32
2022-09-23T01:51:47.490Z,1011.33
2022-09-23T01:52:22.624Z,1011.30
2022-09-23T01:52:57.824Z,1011.32
2022-09-23T01:53:33.075Z,1011.30
2022-09-23T01:54:08.411Z,1011.29
2022-09-23T01:54:43.704Z,1011.27
2022-09-23T01:55:18.803Z,1011.27
2022-09-23T01:55:54.025Z,1011.30
2022-09-23T01:56:29.375Z,1011.33
2022-09-23T01:57:04.786Z,1011.27
2022-09-23T01:57:40.003Z,1011.32
2022-09-23T01:58:15.225Z,1011.30
2022-09-23T01:58:50.390Z,1011.28
2022-09-23T01:59:25.573Z,1011.28
2022-09-23T02:00:00.909Z,1011.25
2022-09-23T02:00:37.335Z,1011.26
2022-09-23T02:01:12.335Z,1011.24
2022-09-23T02:01:47.686Z,1011.26
2022-09-23T02:02:22.514Z,1011.28
2022-09-23T02:02:57.876Z,1011.23
2022-09-23T02:03:33.098Z,1011.25
2022-09-23T02:04:08.519Z,1011.21
2022-09-23T02:04:43.712Z,1011.23
2022-09-23T02:05:19.033Z,1011.24
2022-09-23T02:05:54.187Z,1011.22
2022-09-23T02:06:29.272Z,1011.22
2022-09-23T02:07:04.393Z,1011.20
2022-09-23T02:07:39.299Z,1011.22
2022-09-23T02:08:14.428Z,1011.20
2022-09-23T02:08:49.633Z,1011.21
2022-09-23T02:09:24.874Z,1011.21
2022-09-23T02:10:00.256Z,1011.21
2022-09-23T02:10:35.563Z,1011.23
2022-09-23T02:11:10.756Z,1011.18
2022-09-23T02:11:45.899Z,1011.20
2022-09-23T02:12:20.998Z,1011.19
2022-09-23T02:12:56.351Z,1011.17
2022-09-23T02:13:31.575Z,1011.17
2022-09-23T02:14:06.811Z,1011.14
2022-09-23T02:14:42.016Z,1011.16
2022-09-23T02:15:17.350Z,1011.16
2022-09-23T02:15:52.559Z,1011.15
2022-09-23T02:16:27.893Z,1011.14
2022-09-23T02:17:03.195Z,1011.11
2022-09-23T02:17:38.322Z,1011.13
2022-09-23T02:18:13.632Z,1011.13
2022-09-23T02:18:48.959Z,1011.16
2022-09-23T02:19:24.268Z,1011.13
2022-09-23T02:19:59.699Z,1011.16
2022-09-23T02:20:34.746Z,1011.13
2022-09-23T02:21:10.229Z,1011.12
2022-09-23T02:21:45.445Z,1011.10
2022-09-23T02:22:20.571Z,1011.10
2022-09-23T02:22:56.066Z,1011.09
2022-09-23T02:23:31.268Z,1011.07
2022-09-23T02:24:06.471Z,1011.10
2022-09-23T02:24:42.090Z,1011.12
2022-09-23T02:25:17.427Z,1011.13
2022-09-23T02:25:52.509Z,1011.11
2022-09-23T02:26:27.631Z,1011.14
2022-09-23T02:27:02.700Z,1011.12
2022-09-23T02:27:37.895Z,1011.11
2022-09-23T02:28:13.307Z,1011.12
2022-09-23T02:28:48.326Z,1011.12
2022-09-23T02:29:23.455Z,1011.13
2022-09-23T02:29:58.640Z,1011.07
2022-09-23T02:30:35.459Z,1011.11
2022-09-23T02:31:10.569Z,1011.14
2022-09-23T02:31:45.863Z,1011.13
2022-09-23T02:32:20.998Z,1011.11
2022-09-23T02:32:55.925Z,1011.13
2022-09-23T02:33:31.099Z,1011.15
2022-09-23T02:34:06.126Z,1011.10
2022-09-23T02:34:41.444Z,1011.11
2022-09-23T02:35:16.558Z,1011.12
2022-09-23T02:35:51.647Z,1011.05
2022-09-23T02:36:27.409Z,1011.09
2022-09-23T02:37:02.449Z,1011.08
2022-09-23T02:37:37.676Z,1011.09
2022-09-23T02:38:12.876Z,1011.04
2022-09-23T02:38:48.015Z,1011.05
2022-09-23T02:39:23.002Z,1011.02
2022-09-23T02:39:58.229Z,1011.00
2022-09-23T02:40:33.405Z,1011.03
2022-09-23T02:41:08.541Z,1010.98
2022-09-23T02:41:43.706Z,1011.02
2022-09-23T02:42:19.158Z,1010.98
2022-09-23T02:42:54.461Z,1011.03
2022-09-23T02:43:29.782Z,1011.01
2022-09-23T02:44:05.076Z,1010.97
2022-09-23T02:44:40.501Z,1011.00
2022-09-23T02:45:15.915Z,1010.97
2022-09-23T02:45:51.260Z,1010.93
2022-09-23T02:46:26.523Z,1011.00
2022-09-23T02:47:01.835Z,1010.96
2022-09-23T02:47:37.001Z,1010.96
2022-09-23T02:48:12.437Z,1010.96
2022-09-23T02:48:47.630Z,1010.91
2022-09-23T02:49:22.946Z,1010.95
2022-09-23T02:49:58.350Z,1010.95
2022-09-23T02:50:33.473Z,1010.90
2022-09-23T02:51:08.674Z,1010.92
2022-09-23T02:51:44.009Z,1010.89
2022-09-23T02:52:19.511Z,1010.92
2022-09-23T02:52:54.859Z,1010.92
2022-09-23T02:53:30.085Z,1010.91
2022-09-23T02:54:05.595Z,1010.94
2022-09-23T02:54:40.744Z,1010.92
2022-09-23T02:55:15.877Z,1010.87
2022-09-23T02:55:50.927Z,1010.88
2022-09-23T02:56:26.161Z,1010.88
2022-09-23T02:57:01.189Z,1010.91
2022-09-23T02:57:36.469Z,1010.88
2022-09-23T02:58:11.700Z,1010.87
2022-09-23T02:58:46.816Z,1010.89
2022-09-23T02:59:22.316Z,1010.88
2022-09-23T02:59:57.327Z,1010.88
2022-09-23T03:00:32.906Z,1010.85
2022-09-23T03:01:08.412Z,1010.85
2022-09-23T03:01:43.447Z,1010.82
2022-09-23T03:02:18.596Z,1010.84
2022-09-23T03:02:54.192Z,1010.80
2022-09-23T03:03:29.417Z,1010.82
2022-09-23T03:04:04.525Z,1010.79
2022-09-23T03:04:39.681Z,1010.81
2022-09-23T03:05:14.794Z,1010.80
2022-09-23T03:05:50.018Z,1010.82
2022-09-23T03:06:25.218Z,1010.79
2022-09-23T03:07:00.840Z,1010.76
2022-09-23T03:07:35.836Z,1010.78
2022-09-23T03:08:10.852Z,1010.75
2022-09-23T03:08:46.374Z,1010.75
2022-09-23T03:09:21.595Z,1010.77
2022-09-23T03:09:56.927Z,1010.74
2022-09-23T03:10:31.944Z,1010.73
2022-09-23T03:11:07.283Z,1010.73
2022-09-23T03:11:42.711Z,1010.71
2022-09-23T03:12:18.015Z,1010.73
2022-09-23T03:12:53.229Z,1010.71
2022-09-23T03:13:29.515Z,1010.67
2022-09-23T03:14:03.830Z,1010.69
2022-09-23T03:14:39.045Z,1010.70
2022-09-23T03:15:14.199Z,1010.66
2022-09-23T03:15:49.343Z,1010.69
2022-09-23T03:16:24.516Z,1010.67
2022-09-23T03:17:02.642Z,1010.65
2022-09-23T03:17:37.764Z,1010.65
2022-09-23T03:18:12.965Z,1010.66
2022-09-23T03:18:48.542Z,1010.67
2022-09-23T03:19:23.648Z,1010.67
2022-09-23T03:19:58.694Z,1010.65
2022-09-23T03:20:33.882Z,1010.65
2022-09-23T03:21:09.115Z,1010.61
2022-09-23T03:21:44.492Z,1010.65
2022-09-23T03:22:19.604Z,1010.62
2022-09-23T03:22:54.739Z,1010.59
2022-09-23T03:23:29.771Z,1010.60
2022-09-23T03:24:05.068Z,1010.62
2022-09-23T03:24:40.132Z,1010.61
2022-09-23T03:25:15.343Z,1010.64
2022-09-23T03:25:50.561Z,1010.60
2022-09-23T03:26:25.930Z,1010.60
2022-09-23T03:27:01.167Z,1010.61
2022-09-23T03:27:36.190Z,1010.61
2022-09-23T03:28:11.426Z,1010.61
2022-09-23T03:28:46.583Z,1010.59
2022-09-23T03:29:21.711Z,1010.63
2022-09-23T03:29:57.540Z,1010.61
2022-09-23T03:30:32.730Z,1010.61
2022-09-23T03:31:08.187Z,1010.58
2022-09-23T03:31:43.552Z,1010.58
2022-09-23T03:32:18.720Z,1010.58
2022-09-23T03:32:54.140Z,1010.56
2022-09-23T03:33:29.172Z,1010.58
2022-09-23T03:34:04.706Z,1010.56
2022-09-23T03:34:39.993Z,1010.60
2022-09-23T03:35:15.327Z,1010.56
2022-09-23T03:35:50.625Z,1010.56
2022-09-23T03:36:25.841Z,1010.56
2022-09-23T03:37:01.374Z,1010.59
2022-09-23T03:37:36.489Z,1010.59
2022-09-23T03:38:11.742Z,1010.58
2022-09-23T03:38:46.963Z,1010.57
2022-09-23T03:39:22.261Z,1010.53
2022-09-23T03:39:57.620Z,1010.55
2022-09-23T03:40:32.884Z,1010.53
2022-09-23T03:41:08.260Z,1010.54
2022-09-23T03:41:43.381Z,1010.53
2022-09-23T03:42:18.888Z,1010.54
2022-09-23T03:42:54.233Z,1010.52
2022-09-23T03:43:30.038Z,1010.53
2022-09-23T03:44:04.881Z,1010.52
2022-09-23T03:44:40.230Z,1010.52
2022-09-23T03:45:15.371Z,1010.52
2022-09-23T03:45:50.928Z,1010.50
2022-09-23T03:46:26.214Z,1010.54
2022-09-23T03:47:01.525Z,1010.49
2022-09-23T03:47:36.728Z,1010.54
2022-09-23T03:48:12.257Z,1010.47
2022-09-23T03:48:47.392Z,1010.51
2022-09-23T03:49:22.505Z,1010.45
2022-09-23T03:49:57.719Z,1010.49
2022-09-23T03:50:33.122Z,1010.46
2022-09-23T03:51:08.364Z,1010.46
2022-09-23T03:51:44.831Z,1010.47
2022-09-23T03:52:18.883Z,1010.46
2022-09-23T03:52:54.217Z,1010.44
2022-09-23T03:53:29.321Z,1010.45
2022-09-23T03:54:04.539Z,1010.41
2022-09-23T03:54:39.939Z,1010.44
2022-09-23T03:55:15.284Z,1010.46
2022-09-23T03:55:50.795Z,1010.43
2022-09-23T03:56:26.101Z,1010.45
2022-09-23T03:57:01.323Z,1010.41
2022-09-23T03:57:36.655Z,1010.42
2022-09-23T03:58:11.872Z,1010.40
2022-09-23T03:58:46.909Z,1010.38
2022-09-23T03:59:22.066Z,1010.38
2022-09-23T03:59:57.593Z,1010.37
2022-09-23T04:00:32.959Z,1010.36
2022-09-23T04:01:08.096Z,1010.35
2022-09-23T04:01:43.543Z,1010.35
2022-09-23T04:02:18.977Z,1010.37
2022-09-23T04:02:54.335Z,1010.40
2022-09-23T04:03:29.658Z,1010.36
2022-09-23T04:04:04.960Z,1010.35
2022-09-23T04:04:40.105Z,1010.35
2022-09-23T04:05:15.527Z,1010.32
2022-09-23T04:05:50.672Z,1010.36
2022-09-23T04:06:25.908Z,1010.32
2022-09-23T04:07:01.322Z,1010.31
2022-09-23T04:07:36.435Z,1010.32
2022-09-23T04:08:12.073Z,1010.28
2022-09-23T04:08:47.177Z,1010.33
2022-09-23T04:09:22.331Z,1010.30
2022-09-23T04:09:57.928Z,1010.29
2022-09-23T04:10:33.069Z,1010.30
2022-09-23T04:11:08.196Z,1010.26
2022-09-23T04:11:43.311Z,1010.26
2022-09-23T04:12:18.585Z,1010.25
2022-09-23T04:12:53.796Z,1010.27
2022-09-23T04:13:29.213Z,1010.28
2022-09-23T04:14:04.367Z,1010.28
2022-09-23T04:14:39.497Z,1010.27
2022-09-23T04:15:14.854Z,1010.27
2022-09-23T04:15:49.961Z,1010.26
2022-09-23T04:16:25.405Z,1010.30
2022-09-23T04:17:00.820Z,1010.29
2022-09-23T04:17:36.155Z,1010.30
2022-09-23T04:18:11.464Z,1010.32
2022-09-23T04:18:46.985Z,1010.29
2022-09-23T04:19:22.214Z,1010.27
2022-09-23T04:19:57.328Z,1010.30
2022-09-23T04:20:32.762Z,1010.28
2022-09-23T04:21:07.881Z,1010.28
2022-09-23T04:21:42.824Z,1010.27
2022-09-23T04:22:18.127Z,1010.30
2022-09-23T04:22:53.259Z,1010.27
2022-09-23T04:23:28.588Z,1010.27
2022-09-23T04:24:04.037Z,1010.26
2022-09-23T04:24:39.253Z,1010.31
2022-09-23T04:25:14.763Z,1010.24
2022-09-23T04:25:50.127Z,1010.28
2022-09-23T04:26:25.248Z,1010.23
2022-09-23T04:27:00.572Z,1010.23
2022-09-23T04:27:37.729Z,1010.24
2022-09-23T04:28:11.227Z,1010.17
2022-09-23T04:28:46.343Z,1010.19
2022-09-23T04:29:21.452Z,1010.18
2022-09-23T04:29:56.595Z,1010.18
2022-09-23T04:30:31.940Z,1010.15
2022-09-23T04:31:07.294Z,1010.14
2022-09-23T04:31:42.427Z,1010.14
2022-09-23T04:32:17.950Z,1010.16
2022-09-23T04:32:53.075Z,1010.15
2022-09-23T04:33:28.278Z,1010.13
2022-09-23T04:34:03.810Z,1010.13
2022-09-23T04:34:39.048Z,1010.13
2022-09-23T04:35:14.466Z,1010.14
2022-09-23T04:35:49.726Z,1010.14
2022-09-23T04:36:25.058Z,1010.16
2022-09-23T04:37:00.488Z,1010.15
2022-09-23T04:37:35.700Z,1010.17
2022-09-23T04:38:11.019Z,1010.15
2022-09-23T04:38:46.242Z,1010.15
2022-09-23T04:39:21.371Z,1010.19
2022-09-23T04:39:56.622Z,1010.15
2022-09-23T04:40:31.868Z,1010.20
2022-09-23T04:41:06.941Z,1010.15
2022-09-23T04:41:42.498Z,1010.16
2022-09-23T04:42:17.689Z,1010.18
2022-09-23T04:42:53.213Z,1010.10
2022-09-23T04:43:28.447Z,1010.14
2022-09-23T04:44:03.785Z,1010.12
2022-09-23T04:44:39.027Z,1010.13
2022-09-23T04:45:14.301Z,1010.13
2022-09-23T04:45:49.439Z,1010.10
2022-09-23T04:46:24.944Z,1010.10
2022-09-23T04:47:00.267Z,1010.09
2022-09-23T04:47:35.069Z,1010.08
2022-09-23T04:48:10.578Z,1010.10
2022-09-23T04:48:45.860Z,1010.09
2022-09-23T04:49:21.436Z,1010.10
2022-09-23T04:49:59.691Z,1010.06
2022-09-23T04:50:31.901Z,1010.04
2022-09-23T04:51:07.134Z,1010.08
2022-09-23T04:51:42.334Z,1010.07
2022-09-23T04:52:17.932Z,1010.05
2022-09-23T04:52:53.088Z,1010.06
2022-09-23T04:53:28.222Z,1010.04
2022-09-23T04:54:03.688Z,1010.02
2022-09-23T04:54:38.896Z,1010.01
2022-09-23T04:55:14.228Z,1010.03
2022-09-23T04:55:49.761Z,1010.02
2022-09-23T04:56:24.964Z,1009.99
2022-09-23T04:57:00.300Z,1010.00
2022-09-23T04:57:35.911Z,1009.99
2022-09-23T04:58:11.185Z,1010.03
2022-09-23T04:58:46.481Z,1009.99
2022-09-23T04:59:21.655Z,1009.98
2022-09-23T04:59:56.935Z,1009.98
2022-09-23T05:00:32.319Z,1009.99
2022-09-23T05:01:08.216Z,1009.99
2022-09-23T05:01:43.538Z,1010.01
2022-09-23T05:02:18.701Z,1009.97
2022-09-23T05:02:54.373Z,1009.99
2022-09-23T05:03:29.728Z,1009.95
2022-09-23T05:04:04.846Z,1009.95
2022-09-23T05:04:40.001Z,1009.94
2022-09-23T05:05:15.357Z,1009.93
2022-09-23T05:05:50.676Z,1009.92
2022-09-23T05:06:25.712Z,1009.92
2022-09-23T05:07:03.234Z,1009.90
2022-09-23T05:07:36.177Z,1009.91
2022-09-23T05:08:11.514Z,1009.89
2022-09-23T05:08:46.712Z,1009.89
2022-09-23T05:09:22.187Z,1009.86
2022-09-23T05:09:57.578Z,1009.85
2022-09-23T05:10:32.732Z,1009.84
2022-09-23T05:11:07.972Z,1009.85
2022-09-23T05:11:43.178Z,1009.85
2022-09-23T05:12:18.835Z,1009.84
2022-09-23T05:12:57.090Z,1009.87
2022-09-23T05:13:29.022Z,1009.84
2022-09-23T05:14:04.535Z,1009.84
2022-09-23T05:14:39.964Z,1009.85
2022-09-23T05:15:15.165Z,1009.88
2022-09-23T05:15:50.415Z,1009.90
2022-09-23T05:16:25.759Z,1009.87
2022-09-23T05:17:01.230Z,1009.90
2022-09-23T05:17:36.681Z,1009.90
2022-09-23T05:18:12.040Z,1009.89
2022-09-23T05:18:47.178Z,1009.91
2022-09-23T05:19:22.252Z,1009.88
2022-09-23T05:19:57.584Z,1009.92
2022-09-23T05:20:32.916Z,1009.89
2022-09-23T05:21:08.395Z,1009.89
2022-09-23T05:21:44.010Z,1009.88
2022-09-23T05:22:19.308Z,1009.86
2022-09-23T05:22:54.837Z,1009.88
2022-09-23T05:23:30.008Z,1009.86
2022-09-23T05:24:05.334Z,1009.90
2022-09-23T05:24:40.629Z,1009.89
2022-09-23T05:25:15.962Z,1009.87
2022-09-23T05:25:51.424Z,1009.85
2022-09-23T05:26:26.669Z,1009.81
2022-09-23T05:27:02.574Z,1009.85
2022-09-23T05:27:37.078Z,1009.85
2022-09-23T05:28:12.319Z,1009.82
2022-09-23T05:28:47.620Z,1009.81
2022-09-23T05:29:23.105Z,1009.82
2022-09-23T05:29:58.340Z,1009.79
2022-09-23T05:30:33.456Z,1009.81
2022-09-23T05:31:08.748Z,1009.83
2022-09-23T05:31:44.007Z,1009.82
2022-09-23T05:32:19.305Z,1009.87
2022-09-23T05:32:54.448Z,1009.82
2022-09-23T05:33:29.656Z,1009.85
2022-09-23T05:34:04.908Z,1009.89
2022-09-23T05:34:40.117Z,1009.91
2022-09-23T05:35:15.362Z,1009.91
2022-09-23T05:35:51.089Z,1009.94
2022-09-23T05:36:26.482Z,1009.92
2022-09-23T05:37:01.598Z,1009.94
2022-09-23T05:37:36.944Z,1009.94
2022-09-23T05:38:12.421Z,1009.95
2022-09-23T05:38:47.762Z,1009.95
2022-09-23T05:39:22.988Z,1009.95
2022-09-23T05:39:58.799Z,1009.96
2022-09-23T05:40:33.878Z,1009.99
2022-09-23T05:41:09.041Z,1009.96
2022-09-23T05:41:44.087Z,1009.98
2022-09-23T05:42:19.498Z,1009.96
2022-09-23T05:42:54.782Z,1009.97
2022-09-23T05:43:30.159Z,1010.00
2022-09-23T05:44:05.275Z,1010.01
2022-09-23T05:44:40.495Z,1010.00
2022-09-23T05:45:15.605Z,1010.01
2022-09-23T05:45:50.586Z,1010.03
2022-09-23T05:46:25.876Z,1010.01
2022-09-23T05:47:00.902Z,1010.00
2022-09-23T05:47:36.024Z,1010.03
2022-09-23T05:48:11.274Z,1010.05
2022-09-23T05:48:46.603Z,1010.03
2022-09-23T05:49:29.673Z,1010.05
2022-09-23T05:49:59.995Z,1010.02
2022-09-23T05:50:32.144Z,1010.05
2022-09-23T05:51:07.297Z,1010.08
2022-09-23T05:51:42.521Z,1010.08
2022-09-23T05:52:17.873Z,1010.07
2022-09-23T05:52:53.416Z,1010.06
2022-09-23T05:53:28.466Z,1010.09
2022-09-23T05:54:03.658Z,1010.09
2022-09-23T05:54:38.847Z,1010.10
2022-09-23T05:55:14.288Z,1010.11
2022-09-23T05:55:49.529Z,1010.10
2022-09-23T05:56:24.860Z,1010.11
2022-09-23T05:57:02.780Z,1010.12
2022-09-23T05:57:35.833Z,1010.08
2022-09-23T05:58:11.006Z,1010.11
2022-09-23T05:58:46.301Z,1010.12
2022-09-23T05:59:21.932Z,1010.06
2022-09-23T05:59:57.088Z,1010.08
2022-09-23T06:00:32.638Z,1010.11
2022-09-23T06:01:07.667Z,1010.08
2022-09-23T06:01:43.355Z,1010.09
2022-09-23T06:02:18.410Z,1010.12
2022-09-23T06:02:53.721Z,1010.09
2022-09-23T06:03:28.925Z,1010.12
2022-09-23T06:04:03.893Z,1010.08
2022-09-23T06:04:39.094Z,1010.08
2022-09-23T06:05:14.218Z,1010.05
2022-09-23T06:05:49.650Z,1010.10
2022-09-23T06:06:24.994Z,1010.07
2022-09-23T06:07:03.253Z,1010.04
2022-09-23T06:07:36.001Z,1010.10
2022-09-23T06:08:11.322Z,1010.09
2022-09-23T06:08:46.569Z,1010.03
2022-09-23T06:09:21.789Z,1010.06
2022-09-23T06:09:57.036Z,1010.10
2022-09-23T06:10:32.485Z,1010.10
2022-09-23T06:11:07.960Z,1010.10
2022-09-23T06:11:43.535Z,1010.11
2022-09-23T06:12:18.949Z,1010.07
2022-09-23T06:12:53.997Z,1010.06
2022-09-23T06:13:29.402Z,1010.07
2022-09-23T06:14:04.867Z,1010.08
2022-09-23T06:14:40.298Z,1010.09
2022-09-23T06:15:15.411Z,1010.10
2022-09-23T06:15:50.778Z,1010.08
2022-09-23T06:16:26.017Z,1010.09
2022-09-23T06:17:01.073Z,1010.06
2022-09-23T06:17:36.226Z,1010.08
2022-09-23T06:18:11.621Z,1010.10
2022-09-23T06:18:46.649Z,1010.14
2022-09-23T06:19:21.824Z,1010.10
2022-09-23T06:19:57.045Z,1010.09
2022-09-23T06:20:32.275Z,1010.11
2022-09-23T06:21:07.516Z,1010.09
2022-09-23T06:21:42.600Z,1010.09
2022-09-23T06:22:17.740Z,1010.06
2022-09-23T06:22:55.260Z,1010.09
2022-09-23T06:23:28.336Z,1010.09
2022-09-23T06:24:03.638Z,1010.07
2022-09-23T06:24:38.889Z,1010.05
2022-09-23T06:25:14.200Z,1010.07
2022-09-23T06:25:49.446Z,1010.08
2022-09-23T06:26:24.710Z,1010.08
2022-09-23T06:27:06.961Z,1010.11
2022-09-23T06:27:42.395Z,1010.10
2022-09-23T06:28:17.916Z,1010.08
2022-09-23T06:28:53.361Z,1010.09
2022-09-23T06:29:28.478Z,1010.11
2022-09-23T06:30:03.732Z,1010.10
2022-09-23T06:30:39.293Z,1010.08
2022-09-23T06:31:14.322Z,1010.10
2022-09-23T06:31:49.493Z,1010.12
2022-09-23T06:32:24.520Z,1010.10
2022-09-23T06:32:59.923Z,1010.09
2022-09-23T06:33:37.238Z,1010.12
2022-09-23T06:34:12.721Z,1010.10
2022-09-23T06:34:51.445Z,1010.10
2022-09-23T06:35:27.053Z,1010.10
2022-09-23T06:35:59.791Z,1010.13
2022-09-23T06:36:42.340Z,1010.09
2022-09-23T06:37:18.128Z,1010.12
2022-09-23T06:37:42.128Z,1010.09
2022-09-23T06:38:17.645Z,1010.09
2022-09-23T06:38:53.252Z,1010.07
2022-09-23T06:39:28.562Z,1010.09
2022-09-23T06:40:04.167Z,1010.09
2022-09-23T06:40:39.419Z,1010.08
2022-09-23T06:41:14.645Z,1010.08
2022-09-23T06:41:49.912Z,1010.07
2022-09-23T06:42:25.013Z,1010.05
2022-09-23T06:43:00.345Z,1010.06
2022-09-23T06:43:35.862Z,1010.06
2022-09-23T06:44:11.100Z,1010.04
2022-09-23T06:44:46.210Z,1010.02
2022-09-23T06:45:21.441Z,1010.07
2022-09-23T06:45:56.785Z,1010.07
2022-09-23T06:46:32.061Z,1010.08
2022-09-23T06:47:06.999Z,1010.09
2022-09-23T06:47:42.410Z,1010.07
2022-09-23T06:48:17.617Z,1010.05
2022-09-23T06:48:52.962Z,1010.06
2022-09-23T06:49:28.371Z,1010.07
2022-09-23T06:50:04.401Z,1010.03
2022-09-23T06:50:39.511Z,1010.03
2022-09-23T06:51:15.099Z,1010.03
2022-09-23T06:51:50.440Z,1010.03
2022-09-23T06:52:25.652Z,1009.99
2022-09-23T06:53:00.774Z,1009.98
2022-09-23T06:53:36.119Z,1010.02
2022-09-23T06:54:11.406Z,1010.03
2022-09-23T06:54:46.928Z,1010.02
2022-09-23T06:55:22.133Z,1010.02
2022-09-23T06:55:57.753Z,1010.06
2022-09-23T06:56:37.960Z,1010.06
2022-09-23T06:57:08.206Z,1010.05
2022-09-23T06:57:43.224Z,1010.05
2022-09-23T06:58:18.636Z,1010.08
2022-09-23T06:58:53.965Z,1010.11
2022-09-23T06:59:29.288Z,1010.07
2022-09-23T07:00:04.404Z,1010.07
2022-09-23T07:00:39.522Z,1010.09
2022-09-23T07:01:14.632Z,1010.06
2022-09-23T07:01:49.907Z,1010.09
2022-09-23T07:02:25.213Z,1010.06
2022-09-23T07:03:00.707Z,1010.09
2022-09-23T07:03:35.938Z,1010.10
2022-09-23T07:04:11.245Z,1010.07
2022-09-23T07:04:46.479Z,1010.09
2022-09-23T07:05:21.579Z,1010.04
2022-09-23T07:05:56.790Z,1010.01
2022-09-23T07:06:31.906Z,1010.05
2022-09-23T07:07:07.058Z,1010.05
2022-09-23T07:07:42.504Z,1010.05
2022-09-23T07:08:17.794Z,1010.02
2022-09-23T07:08:53.324Z,1010.05
2022-09-23T07:09:28.338Z,1010.05
2022-09-23T07:10:03.455Z,1010.06
2022-09-23T07:10:38.891Z,1010.04
2022-09-23T07:11:14.262Z,1010.04
2022-09-23T07:11:49.913Z,1010.08
2022-09-23T07:12:25.134Z,1010.10
2022-09-23T07:13:00.562Z,1010.08